sensor_id;sensor_type;location;lat;lon;timestamp;temperature;humidity
2409;DHT22;8463;48.094;7.970;2023-05-07T00:01:15;14.50;26.70
2409;DHT22;8463;48.094;7.970;2023-05-07T00:03:40;14.50;26.90
2409;DHT22;8463;48.094;7.970;2023-05-07T00:06:11;14.40;27.30
2409;DHT22;8463;48.094;7.970;2023-05-07T00:08:38;14.40;27.10
2409;DHT22;8463;48.094;7.970;2023-05-07T00:11:03;14.40;26.50
2409;DHT22;8463;48.094;7.970;2023-05-07T00:13:29;14.40;26.60
2409;DHT22;8463;48.094;7.970;2023-05-07T00:16:01;14.40;26.50
2409;DHT22;8463;48.094;7.970;2023-05-07T00:18:33;14.40;26.80
2409;DHT22;8463;48.094;7.970;2023-05-07T00:20:58;14.40;26.10
2409;DHT22;8463;48.094;7.970;2023-05-07T00:23:30;14.40;26.90
2409;DHT22;8463;48.094;7.970;2023-05-07T00:25:56;14.40;26.40
2409;DHT22;8463;48.094;7.970;2023-05-07T00:28:21;14.40;26.40
2409;DHT22;8463;48.094;7.970;2023-05-07T00:30:47;14.30;26.00
2409;DHT22;8463;48.094;7.970;2023-05-07T00:33:12;14.30;26.80
2409;DHT22;8463;48.094;7.970;2023-05-07T00:35:38;14.20;26.90
2409;DHT22;8463;48.094;7.970;2023-05-07T00:38:04;14.10;28.30
2409;DHT22;8463;48.094;7.970;2023-05-07T00:40:32;14.10;28.70
2409;DHT22;8463;48.094;7.970;2023-05-07T00:42:58;14.20;27.60
2409;DHT22;8463;48.094;7.970;2023-05-07T00:45:28;14.10;28.30
2409;DHT22;8463;48.094;7.970;2023-05-07T00:47:55;14.10;29.20
2409;DHT22;8463;48.094;7.970;2023-05-07T00:50:29;14.10;29.30
2409;DHT22;8463;48.094;7.970;2023-05-07T00:52:55;14.20;28.60
2409;DHT22;8463;48.094;7.970;2023-05-07T00:55:22;14.20;28.40
2409;DHT22;8463;48.094;7.970;2023-05-07T00:57:50;14.20;28.40
2409;DHT22;8463;48.094;7.970;2023-05-07T01:00:17;14.20;28.40
2409;DHT22;8463;48.094;7.970;2023-05-07T01:02:43;14.20;28.40
2409;DHT22;8463;48.094;7.970;2023-05-07T01:05:13;14.20;28.40
2409;DHT22;8463;48.094;7.970;2023-05-07T01:07:41;14.20;28.40
2409;DHT22;8463;48.094;7.970;2023-05-07T01:10:08;14.20;28.40
2409;DHT22;8463;48.094;7.970;2023-05-07T01:12:35;14.20;28.80
2409;DHT22;8463;48.094;7.970;2023-05-07T01:15:02;14.20;29.00
2409;DHT22;8463;48.094;7.970;2023-05-07T01:17:28;14.20;29.70
2409;DHT22;8463;48.094;7.970;2023-05-07T01:19:54;14.20;29.00
2409;DHT22;8463;48.094;7.970;2023-05-07T01:22:35;14.30;28.50
2409;DHT22;8463;48.094;7.970;2023-05-07T01:25:05;14.40;28.50
2409;DHT22;8463;48.094;7.970;2023-05-07T01:27:37;14.40;27.30
2409;DHT22;8463;48.094;7.970;2023-05-07T01:30:04;14.40;25.30
2409;DHT22;8463;48.094;7.970;2023-05-07T01:33:07;14.40;26.30
2409;DHT22;8463;48.094;7.970;2023-05-07T01:35:46;14.50;26.10
2409;DHT22;8463;48.094;7.970;2023-05-07T01:38:12;14.40;25.50
2409;DHT22;8463;48.094;7.970;2023-05-07T01:43:06;14.40;25.40
2409;DHT22;8463;48.094;7.970;2023-05-07T01:45:34;14.30;25.70
2409;DHT22;8463;48.094;7.970;2023-05-07T01:48:01;14.30;26.80
2409;DHT22;8463;48.094;7.970;2023-05-07T01:50:27;14.30;26.60
2409;DHT22;8463;48.094;7.970;2023-05-07T01:52:53;14.40;26.10
2409;DHT22;8463;48.094;7.970;2023-05-07T01:55:18;14.40;25.20
2409;DHT22;8463;48.094;7.970;2023-05-07T01:57:44;14.40;24.50
2409;DHT22;8463;48.094;7.970;2023-05-07T02:00:10;14.40;25.10
2409;DHT22;8463;48.094;7.970;2023-05-07T02:02:36;14.40;25.50
2409;DHT22;8463;48.094;7.970;2023-05-07T02:05:03;14.50;25.10
2409;DHT22;8463;48.094;7.970;2023-05-07T02:07:29;14.50;24.80
2409;DHT22;8463;48.094;7.970;2023-05-07T02:09:59;14.50;25.30
2409;DHT22;8463;48.094;7.970;2023-05-07T02:12:25;14.30;25.40
2409;DHT22;8463;48.094;7.970;2023-05-07T02:14:51;14.10;26.40
2409;DHT22;8463;48.094;7.970;2023-05-07T02:17:16;14.00;27.20
2409;DHT22;8463;48.094;7.970;2023-05-07T02:22:09;14.00;28.20
2409;DHT22;8463;48.094;7.970;2023-05-07T02:24:35;14.10;27.60
2409;DHT22;8463;48.094;7.970;2023-05-07T02:27:01;14.10;27.10
2409;DHT22;8463;48.094;7.970;2023-05-07T02:29:27;14.10;26.20
2409;DHT22;8463;48.094;7.970;2023-05-07T02:31:53;14.10;27.10
2409;DHT22;8463;48.094;7.970;2023-05-07T02:34:19;14.10;27.60
2409;DHT22;8463;48.094;7.970;2023-05-07T02:36:47;14.00;27.90
2409;DHT22;8463;48.094;7.970;2023-05-07T02:39:13;14.10;28.30
2409;DHT22;8463;48.094;7.970;2023-05-07T02:41:40;14.10;27.10
2409;DHT22;8463;48.094;7.970;2023-05-07T02:44:05;14.00;26.60
2409;DHT22;8463;48.094;7.970;2023-05-07T02:46:31;14.00;27.40
2409;DHT22;8463;48.094;7.970;2023-05-07T02:49:03;14.00;26.40
2409;DHT22;8463;48.094;7.970;2023-05-07T02:51:30;13.90;26.50
2409;DHT22;8463;48.094;7.970;2023-05-07T02:53:58;13.90;26.70
2409;DHT22;8463;48.094;7.970;2023-05-07T02:56:26;14.00;26.20
2409;DHT22;8463;48.094;7.970;2023-05-07T02:58:51;13.80;26.60
2409;DHT22;8463;48.094;7.970;2023-05-07T03:01:17;13.80;27.70
2409;DHT22;8463;48.094;7.970;2023-05-07T03:03:42;13.70;28.00
2409;DHT22;8463;48.094;7.970;2023-05-07T03:06:08;13.70;28.00
2409;DHT22;8463;48.094;7.970;2023-05-07T03:08:34;13.70;26.60
2409;DHT22;8463;48.094;7.970;2023-05-07T03:10:59;13.70;27.10
2409;DHT22;8463;48.094;7.970;2023-05-07T03:13:31;13.70;28.00
2409;DHT22;8463;48.094;7.970;2023-05-07T03:15:56;13.70;28.10
2409;DHT22;8463;48.094;7.970;2023-05-07T03:18:22;13.70;28.40
2409;DHT22;8463;48.094;7.970;2023-05-07T03:20:54;13.50;28.70
2409;DHT22;8463;48.094;7.970;2023-05-07T03:23:19;13.50;28.80
2409;DHT22;8463;48.094;7.970;2023-05-07T03:25:45;13.50;27.90
2409;DHT22;8463;48.094;7.970;2023-05-07T03:28:11;13.50;27.90
2409;DHT22;8463;48.094;7.970;2023-05-07T03:30:36;13.50;27.80
2409;DHT22;8463;48.094;7.970;2023-05-07T03:33:04;13.40;28.60
2409;DHT22;8463;48.094;7.970;2023-05-07T03:35:30;13.40;29.10
2409;DHT22;8463;48.094;7.970;2023-05-07T03:37:55;13.50;28.90
2409;DHT22;8463;48.094;7.970;2023-05-07T03:42:47;13.50;28.50
2409;DHT22;8463;48.094;7.970;2023-05-07T03:45:13;13.60;28.20
2409;DHT22;8463;48.094;7.970;2023-05-07T03:47:40;13.60;27.90
2409;DHT22;8463;48.094;7.970;2023-05-07T03:50:06;13.50;27.80
2409;DHT22;8463;48.094;7.970;2023-05-07T03:52:32;13.50;28.60
2409;DHT22;8463;48.094;7.970;2023-05-07T03:54:57;13.50;28.20
2409;DHT22;8463;48.094;7.970;2023-05-07T03:57:23;13.50;28.40
2409;DHT22;8463;48.094;7.970;2023-05-07T03:59:51;13.50;27.80
2409;DHT22;8463;48.094;7.970;2023-05-07T04:02:17;13.40;27.80
2409;DHT22;8463;48.094;7.970;2023-05-07T04:04:43;13.50;27.80
2409;DHT22;8463;48.094;7.970;2023-05-07T04:07:08;13.50;27.80
2409;DHT22;8463;48.094;7.970;2023-05-07T04:09:35;13.50;27.80
2409;DHT22;8463;48.094;7.970;2023-05-07T04:12:01;13.50;28.30
2409;DHT22;8463;48.094;7.970;2023-05-07T04:16:59;13.40;27.80
2409;DHT22;8463;48.094;7.970;2023-05-07T04:19:25;13.40;28.30
2409;DHT22;8463;48.094;7.970;2023-05-07T04:24:16;13.40;27.80
2409;DHT22;8463;48.094;7.970;2023-05-07T04:26:42;13.40;27.80
2409;DHT22;8463;48.094;7.970;2023-05-07T04:29:10;13.30;28.50
2409;DHT22;8463;48.094;7.970;2023-05-07T04:31:35;13.30;28.80
2409;DHT22;8463;48.094;7.970;2023-05-07T04:34:01;13.40;28.50
2409;DHT22;8463;48.094;7.970;2023-05-07T04:36:27;13.40;27.80
2409;DHT22;8463;48.094;7.970;2023-05-07T04:38:53;13.40;27.80
2409;DHT22;8463;48.094;7.970;2023-05-07T04:41:19;13.40;27.00
2409;DHT22;8463;48.094;7.970;2023-05-07T04:43:44;13.40;27.80
2409;DHT22;8463;48.094;7.970;2023-05-07T04:46:11;13.40;28.30
2409;DHT22;8463;48.094;7.970;2023-05-07T04:48:38;13.40;28.60
2409;DHT22;8463;48.094;7.970;2023-05-07T04:51:04;13.50;27.80
2409;DHT22;8463;48.094;7.970;2023-05-07T04:53:29;13.50;28.70
2409;DHT22;8463;48.094;7.970;2023-05-07T04:55:58;13.60;29.00
2409;DHT22;8463;48.094;7.970;2023-05-07T04:58:24;13.60;28.30
2409;DHT22;8463;48.094;7.970;2023-05-07T05:00:50;13.70;28.30
2409;DHT22;8463;48.094;7.970;2023-05-07T05:03:15;13.80;28.30
2409;DHT22;8463;48.094;7.970;2023-05-07T05:08:07;14.00;27.30
2409;DHT22;8463;48.094;7.970;2023-05-07T05:10:33;14.20;27.00
2409;DHT22;8463;48.094;7.970;2023-05-07T05:13:04;14.20;26.70
2409;DHT22;8463;48.094;7.970;2023-05-07T05:15:29;14.30;24.80
2409;DHT22;8463;48.094;7.970;2023-05-07T05:17:55;14.30;24.70
2409;DHT22;8463;48.094;7.970;2023-05-07T05:20:23;14.30;24.30
2409;DHT22;8463;48.094;7.970;2023-05-07T05:22:48;14.20;24.50
2409;DHT22;8463;48.094;7.970;2023-05-07T05:25:14;14.20;24.60
2409;DHT22;8463;48.094;7.970;2023-05-07T05:27:40;14.20;24.60
2409;DHT22;8463;48.094;7.970;2023-05-07T05:30:06;14.30;24.70
2409;DHT22;8463;48.094;7.970;2023-05-07T05:32:33;14.40;24.70
2409;DHT22;8463;48.094;7.970;2023-05-07T05:34:59;14.60;24.60
2409;DHT22;8463;48.094;7.970;2023-05-07T05:37:25;14.60;24.60
2409;DHT22;8463;48.094;7.970;2023-05-07T05:39:54;14.70;24.40
2409;DHT22;8463;48.094;7.970;2023-05-07T05:42:20;14.70;25.00
2409;DHT22;8463;48.094;7.970;2023-05-07T05:44:46;14.70;23.80
2409;DHT22;8463;48.094;7.970;2023-05-07T05:47:11;14.60;25.10
2409;DHT22;8463;48.094;7.970;2023-05-07T05:49:37;14.60;24.40
2409;DHT22;8463;48.094;7.970;2023-05-07T05:52:02;14.60;24.40
2409;DHT22;8463;48.094;7.970;2023-05-07T05:54:28;14.70;24.30
2409;DHT22;8463;48.094;7.970;2023-05-07T05:56:54;14.80;22.50
2409;DHT22;8463;48.094;7.970;2023-05-07T05:59:19;14.90;22.70
2409;DHT22;8463;48.094;7.970;2023-05-07T06:01:48;15.00;22.20
2409;DHT22;8463;48.094;7.970;2023-05-07T06:04:13;15.00;21.50
2409;DHT22;8463;48.094;7.970;2023-05-07T06:06:39;15.00;21.80
2409;DHT22;8463;48.094;7.970;2023-05-07T06:09:06;15.00;21.80
2409;DHT22;8463;48.094;7.970;2023-05-07T06:11:32;15.00;21.50
2409;DHT22;8463;48.094;7.970;2023-05-07T06:14:01;15.10;21.70
2409;DHT22;8463;48.094;7.970;2023-05-07T06:16:26;15.00;20.90
2409;DHT22;8463;48.094;7.970;2023-05-07T06:18:52;15.10;21.10
2409;DHT22;8463;48.094;7.970;2023-05-07T06:21:17;15.40;21.80
2409;DHT22;8463;48.094;7.970;2023-05-07T06:23:43;15.60;21.90
2409;DHT22;8463;48.094;7.970;2023-05-07T06:26:09;15.80;18.10
2409;DHT22;8463;48.094;7.970;2023-05-07T06:28:36;15.90;17.60
2409;DHT22;8463;48.094;7.970;2023-05-07T06:31:31;16.00;16.80
2409;DHT22;8463;48.094;7.970;2023-05-07T06:33:57;16.30;17.00
2409;DHT22;8463;48.094;7.970;2023-05-07T06:36:24;16.60;15.00
2409;DHT22;8463;48.094;7.970;2023-05-07T06:38:50;16.80;8.40
2409;DHT22;8463;48.094;7.970;2023-05-07T06:43:42;16.70;9.10
2409;DHT22;8463;48.094;7.970;2023-05-07T06:46:08;16.70;7.90
2409;DHT22;8463;48.094;7.970;2023-05-07T06:51:00;16.70;7.00
2409;DHT22;8463;48.094;7.970;2023-05-07T06:53:26;16.70;8.10
2409;DHT22;8463;48.094;7.970;2023-05-07T06:58:19;16.60;7.00
2409;DHT22;8463;48.094;7.970;2023-05-07T07:05:45;17.50;7.60
2409;DHT22;8463;48.094;7.970;2023-05-07T07:08:17;17.50;3.50
2409;DHT22;8463;48.094;7.970;2023-05-07T07:10:43;17.60;1.80
2409;DHT22;8463;48.094;7.970;2023-05-07T07:13:09;17.80;1.00
2409;DHT22;8463;48.094;7.970;2023-05-07T07:15:40;18.00;1.00
2409;DHT22;8463;48.094;7.970;2023-05-07T07:18:06;18.00;1.00
2409;DHT22;8463;48.094;7.970;2023-05-07T07:20:32;18.00;1.00
2409;DHT22;8463;48.094;7.970;2023-05-07T07:23:03;18.10;1.00
2409;DHT22;8463;48.094;7.970;2023-05-07T07:25:29;18.20;1.00
2409;DHT22;8463;48.094;7.970;2023-05-07T07:27:55;18.40;1.00
2409;DHT22;8463;48.094;7.970;2023-05-07T07:30:21;18.50;1.00
2409;DHT22;8463;48.094;7.970;2023-05-07T07:32:46;18.70;1.00
2409;DHT22;8463;48.094;7.970;2023-05-07T07:35:12;18.80;1.00
2409;DHT22;8463;48.094;7.970;2023-05-07T07:37:38;18.90;1.00
2409;DHT22;8463;48.094;7.970;2023-05-07T07:40:04;19.10;1.00
2409;DHT22;8463;48.094;7.970;2023-05-07T07:44:56;19.40;1.00
2409;DHT22;8463;48.094;7.970;2023-05-07T07:47:25;19.40;1.00
2409;DHT22;8463;48.094;7.970;2023-05-07T07:49:51;19.80;1.00
2409;DHT22;8463;48.094;7.970;2023-05-07T07:52:17;19.80;1.00
2409;DHT22;8463;48.094;7.970;2023-05-07T07:54:49;20.00;1.00
2409;DHT22;8463;48.094;7.970;2023-05-07T07:57:15;20.10;1.00
2409;DHT22;8463;48.094;7.970;2023-05-07T07:59:40;20.20;1.00
2409;DHT22;8463;48.094;7.970;2023-05-07T08:02:11;20.40;1.00
2409;DHT22;8463;48.094;7.970;2023-05-07T08:04:39;20.70;1.00
2409;DHT22;8463;48.094;7.970;2023-05-07T08:07:04;20.80;1.00
2409;DHT22;8463;48.094;7.970;2023-05-07T08:09:31;21.10;1.00
2409;DHT22;8463;48.094;7.970;2023-05-07T08:11:58;20.80;1.00
2409;DHT22;8463;48.094;7.970;2023-05-07T08:14:23;20.40;1.00
2409;DHT22;8463;48.094;7.970;2023-05-07T08:16:49;20.40;1.00
2409;DHT22;8463;48.094;7.970;2023-05-07T08:19:15;20.60;1.00
2409;DHT22;8463;48.094;7.970;2023-05-07T08:24:11;21.20;1.00
2409;DHT22;8463;48.094;7.970;2023-05-07T08:26:37;21.00;1.00
2409;DHT22;8463;48.094;7.970;2023-05-07T08:29:04;21.20;1.00
2409;DHT22;8463;48.094;7.970;2023-05-07T08:31:32;21.00;1.00
2409;DHT22;8463;48.094;7.970;2023-05-07T08:34:00;20.60;1.00
2409;DHT22;8463;48.094;7.970;2023-05-07T08:36:26;20.30;1.00
2409;DHT22;8463;48.094;7.970;2023-05-07T08:38:52;19.90;1.00
2409;DHT22;8463;48.094;7.970;2023-05-07T08:41:18;20.10;1.00
2409;DHT22;8463;48.094;7.970;2023-05-07T08:43:50;20.00;1.00
2409;DHT22;8463;48.094;7.970;2023-05-07T08:46:20;20.20;1.00
2409;DHT22;8463;48.094;7.970;2023-05-07T08:48:50;20.20;1.00
2409;DHT22;8463;48.094;7.970;2023-05-07T08:51:22;20.30;1.00
2409;DHT22;8463;48.094;7.970;2023-05-07T08:53:49;20.20;1.00
2409;DHT22;8463;48.094;7.970;2023-05-07T08:56:18;20.20;1.00
2409;DHT22;8463;48.094;7.970;2023-05-07T08:58:46;20.20;1.00
2409;DHT22;8463;48.094;7.970;2023-05-07T09:01:15;20.20;1.00
2409;DHT22;8463;48.094;7.970;2023-05-07T09:03:44;20.00;1.00
2409;DHT22;8463;48.094;7.970;2023-05-07T09:06:10;19.80;1.00
2409;DHT22;8463;48.094;7.970;2023-05-07T09:08:38;19.80;1.00
2409;DHT22;8463;48.094;7.970;2023-05-07T09:11:03;20.20;1.00
2409;DHT22;8463;48.094;7.970;2023-05-07T09:13:29;19.90;1.00
2409;DHT22;8463;48.094;7.970;2023-05-07T09:15:55;19.90;1.00
2409;DHT22;8463;48.094;7.970;2023-05-07T09:18:23;19.80;1.00
2409;DHT22;8463;48.094;7.970;2023-05-07T09:20:51;19.90;1.00
2409;DHT22;8463;48.094;7.970;2023-05-07T09:23:16;20.60;1.00
2409;DHT22;8463;48.094;7.970;2023-05-07T09:25:42;20.80;1.00
2409;DHT22;8463;48.094;7.970;2023-05-07T09:28:08;20.60;1.00
2409;DHT22;8463;48.094;7.970;2023-05-07T09:30:35;20.70;1.00
2409;DHT22;8463;48.094;7.970;2023-05-07T09:33:03;20.70;1.00
2409;DHT22;8463;48.094;7.970;2023-05-07T09:35:30;20.70;1.00
2409;DHT22;8463;48.094;7.970;2023-05-07T09:37:59;20.50;1.00
2409;DHT22;8463;48.094;7.970;2023-05-07T09:40:31;20.60;1.00
2409;DHT22;8463;48.094;7.970;2023-05-07T09:43:15;20.70;1.00
2409;DHT22;8463;48.094;7.970;2023-05-07T09:45:41;20.80;1.00
2409;DHT22;8463;48.094;7.970;2023-05-07T09:48:07;20.80;1.00
2409;DHT22;8463;48.094;7.970;2023-05-07T09:50:36;20.60;1.00
2409;DHT22;8463;48.094;7.970;2023-05-07T09:53:05;20.60;1.00
2409;DHT22;8463;48.094;7.970;2023-05-07T09:55:32;20.40;1.00
2409;DHT22;8463;48.094;7.970;2023-05-07T09:57:58;20.40;1.00
2409;DHT22;8463;48.094;7.970;2023-05-07T10:00:31;20.40;1.00
2409;DHT22;8463;48.094;7.970;2023-05-07T10:02:58;20.70;1.00
2409;DHT22;8463;48.094;7.970;2023-05-07T10:05:28;20.80;1.00
2409;DHT22;8463;48.094;7.970;2023-05-07T10:07:55;21.00;1.00
2409;DHT22;8463;48.094;7.970;2023-05-07T10:10:26;21.40;1.00
2409;DHT22;8463;48.094;7.970;2023-05-07T10:12:53;21.40;1.00
2409;DHT22;8463;48.094;7.970;2023-05-07T10:15:19;21.00;1.00
2409;DHT22;8463;48.094;7.970;2023-05-07T10:17:48;20.70;1.00
2409;DHT22;8463;48.094;7.970;2023-05-07T10:20:15;20.70;1.00
2409;DHT22;8463;48.094;7.970;2023-05-07T10:22:43;20.70;1.00
2409;DHT22;8463;48.094;7.970;2023-05-07T10:25:30;20.50;1.00
2409;DHT22;8463;48.094;7.970;2023-05-07T10:27:58;20.40;1.00
2409;DHT22;8463;48.094;7.970;2023-05-07T10:33:03;20.40;1.00
2409;DHT22;8463;48.094;7.970;2023-05-07T10:35:37;20.00;1.00
2409;DHT22;8463;48.094;7.970;2023-05-07T10:38:03;19.80;1.00
2409;DHT22;8463;48.094;7.970;2023-05-07T10:40:30;19.50;1.00
2409;DHT22;8463;48.094;7.970;2023-05-07T10:43:04;19.40;1.00
2409;DHT22;8463;48.094;7.970;2023-05-07T10:45:31;19.20;1.00
2409;DHT22;8463;48.094;7.970;2023-05-07T10:48:17;18.90;1.00
2409;DHT22;8463;48.094;7.970;2023-05-07T10:50:47;18.80;1.00
2409;DHT22;8463;48.094;7.970;2023-05-07T10:55:49;18.20;8.90
2409;DHT22;8463;48.094;7.970;2023-05-07T10:58:28;18.20;10.00
2409;DHT22;8463;48.094;7.970;2023-05-07T11:01:01;18.10;13.40
2409;DHT22;8463;48.094;7.970;2023-05-07T11:03:28;18.10;19.90
2409;DHT22;8463;48.094;7.970;2023-05-07T11:06:14;18.00;24.10
2409;DHT22;8463;48.094;7.970;2023-05-07T11:08:52;17.90;29.10
2409;DHT22;8463;48.094;7.970;2023-05-07T11:11:18;17.70;33.50
2409;DHT22;8463;48.094;7.970;2023-05-07T11:13:48;17.60;34.00
2409;DHT22;8463;48.094;7.970;2023-05-07T11:16:27;17.40;40.80
2409;DHT22;8463;48.094;7.970;2023-05-07T11:19:01;17.40;40.90
2409;DHT22;8463;48.094;7.970;2023-05-07T11:21:43;17.20;43.40
2409;DHT22;8463;48.094;7.970;2023-05-07T11:24:11;17.10;45.20
2409;DHT22;8463;48.094;7.970;2023-05-07T11:26:48;17.20;48.90
2409;DHT22;8463;48.094;7.970;2023-05-07T11:29:17;17.60;46.70
2409;DHT22;8463;48.094;7.970;2023-05-07T11:31:43;17.40;42.50
2409;DHT22;8463;48.094;7.970;2023-05-07T11:34:09;17.50;46.20
2409;DHT22;8463;48.094;7.970;2023-05-07T11:36:42;17.60;42.50
2409;DHT22;8463;48.094;7.970;2023-05-07T11:39:30;17.90;42.70
2409;DHT22;8463;48.094;7.970;2023-05-07T11:41:58;18.10;46.10
2409;DHT22;8463;48.094;7.970;2023-05-07T11:44:24;18.30;40.90
2409;DHT22;8463;48.094;7.970;2023-05-07T11:46:50;18.40;36.50
2409;DHT22;8463;48.094;7.970;2023-05-07T11:49:15;18.50;36.40
2409;DHT22;8463;48.094;7.970;2023-05-07T11:51:41;18.60;34.30
2409;DHT22;8463;48.094;7.970;2023-05-07T11:54:09;18.70;33.20
2409;DHT22;8463;48.094;7.970;2023-05-07T11:56:37;18.60;26.10
2409;DHT22;8463;48.094;7.970;2023-05-07T11:59:05;18.60;30.00
2409;DHT22;8463;48.094;7.970;2023-05-07T12:01:35;18.90;37.60
2409;DHT22;8463;48.094;7.970;2023-05-07T12:04:03;18.80;28.60
2409;DHT22;8463;48.094;7.970;2023-05-07T12:06:29;18.80;29.90
2409;DHT22;8463;48.094;7.970;2023-05-07T12:08:55;18.70;30.00
2409;DHT22;8463;48.094;7.970;2023-05-07T12:11:25;19.10;29.60
2409;DHT22;8463;48.094;7.970;2023-05-07T12:13:57;18.90;24.80
2409;DHT22;8463;48.094;7.970;2023-05-07T12:16:23;18.90;26.80
2409;DHT22;8463;48.094;7.970;2023-05-07T12:18:49;19.10;24.90
2409;DHT22;8463;48.094;7.970;2023-05-07T12:21:18;19.30;26.20
2409;DHT22;8463;48.094;7.970;2023-05-07T12:23:55;19.20;24.10
2409;DHT22;8463;48.094;7.970;2023-05-07T12:26:21;19.30;24.10
2409;DHT22;8463;48.094;7.970;2023-05-07T12:28:47;19.60;25.30
2409;DHT22;8463;48.094;7.970;2023-05-07T12:31:14;19.90;22.90
2409;DHT22;8463;48.094;7.970;2023-05-07T12:33:41;20.00;17.90
2409;DHT22;8463;48.094;7.970;2023-05-07T12:36:07;19.80;14.60
2409;DHT22;8463;48.094;7.970;2023-05-07T12:38:38;19.80;13.80
2409;DHT22;8463;48.094;7.970;2023-05-07T12:41:05;19.90;18.40
2409;DHT22;8463;48.094;7.970;2023-05-07T12:43:33;20.10;9.10
2409;DHT22;8463;48.094;7.970;2023-05-07T12:46:07;19.90;1.00
2409;DHT22;8463;48.094;7.970;2023-05-07T12:48:32;20.10;8.80
2409;DHT22;8463;48.094;7.970;2023-05-07T12:51:00;20.40;2.50
2409;DHT22;8463;48.094;7.970;2023-05-07T12:53:27;20.50;1.00
2409;DHT22;8463;48.094;7.970;2023-05-07T12:56:02;20.20;1.00
2409;DHT22;8463;48.094;7.970;2023-05-07T12:58:30;19.90;1.40
2409;DHT22;8463;48.094;7.970;2023-05-07T13:00:57;19.70;1.00
2409;DHT22;8463;48.094;7.970;2023-05-07T13:03:28;19.60;1.00
2409;DHT22;8463;48.094;7.970;2023-05-07T13:05:58;19.60;1.00
2409;DHT22;8463;48.094;7.970;2023-05-07T13:08:30;19.70;2.60
2409;DHT22;8463;48.094;7.970;2023-05-07T13:11:02;19.70;4.00
2409;DHT22;8463;48.094;7.970;2023-05-07T13:13:35;19.60;1.40
2409;DHT22;8463;48.094;7.970;2023-05-07T13:16:01;19.70;1.50
2409;DHT22;8463;48.094;7.970;2023-05-07T13:18:29;19.60;4.40
2409;DHT22;8463;48.094;7.970;2023-05-07T13:20:59;19.60;5.50
2409;DHT22;8463;48.094;7.970;2023-05-07T13:23:26;19.80;3.10
2409;DHT22;8463;48.094;7.970;2023-05-07T13:25:54;19.80;5.70
2409;DHT22;8463;48.094;7.970;2023-05-07T13:28:24;19.60;3.50
2409;DHT22;8463;48.094;7.970;2023-05-07T13:30:50;19.50;5.50
2409;DHT22;8463;48.094;7.970;2023-05-07T13:33:17;19.40;6.90
2409;DHT22;8463;48.094;7.970;2023-05-07T13:35:45;19.30;5.30
2409;DHT22;8463;48.094;7.970;2023-05-07T13:38:14;19.20;3.10
2409;DHT22;8463;48.094;7.970;2023-05-07T13:40:41;19.30;4.10
2409;DHT22;8463;48.094;7.970;2023-05-07T13:43:06;19.40;3.50
2409;DHT22;8463;48.094;7.970;2023-05-07T13:45:33;19.30;2.70
2409;DHT22;8463;48.094;7.970;2023-05-07T13:48:04;19.50;5.00
2409;DHT22;8463;48.094;7.970;2023-05-07T13:50:30;19.40;7.40
2409;DHT22;8463;48.094;7.970;2023-05-07T13:52:56;19.30;9.40
2409;DHT22;8463;48.094;7.970;2023-05-07T13:55:31;19.10;8.90
2409;DHT22;8463;48.094;7.970;2023-05-07T13:58:02;18.90;12.50
2409;DHT22;8463;48.094;7.970;2023-05-07T14:00:37;18.70;19.60
2409;DHT22;8463;48.094;7.970;2023-05-07T14:03:07;18.60;21.90
2409;DHT22;8463;48.094;7.970;2023-05-07T14:05:33;18.60;26.70
2409;DHT22;8463;48.094;7.970;2023-05-07T14:07:59;18.60;25.50
2409;DHT22;8463;48.094;7.970;2023-05-07T14:10:25;18.70;27.40
2409;DHT22;8463;48.094;7.970;2023-05-07T14:12:51;18.90;28.00
2409;DHT22;8463;48.094;7.970;2023-05-07T14:15:18;19.00;26.30
2409;DHT22;8463;48.094;7.970;2023-05-07T14:17:44;19.00;26.60
2409;DHT22;8463;48.094;7.970;2023-05-07T14:20:11;19.10;24.90
2409;DHT22;8463;48.094;7.970;2023-05-07T14:22:37;19.20;17.50
2409;DHT22;8463;48.094;7.970;2023-05-07T14:25:03;19.40;22.50
2409;DHT22;8463;48.094;7.970;2023-05-07T14:27:29;19.70;23.30
2409;DHT22;8463;48.094;7.970;2023-05-07T14:29:57;20.00;22.40
2409;DHT22;8463;48.094;7.970;2023-05-07T14:32:28;20.30;18.50
2409;DHT22;8463;48.094;7.970;2023-05-07T14:34:54;20.10;15.70
2409;DHT22;8463;48.094;7.970;2023-05-07T14:37:20;20.10;15.40
2409;DHT22;8463;48.094;7.970;2023-05-07T14:39:46;20.00;12.10
2409;DHT22;8463;48.094;7.970;2023-05-07T14:42:11;20.10;14.00
2409;DHT22;8463;48.094;7.970;2023-05-07T14:44:37;20.20;14.40
2409;DHT22;8463;48.094;7.970;2023-05-07T14:47:08;20.40;11.00
2409;DHT22;8463;48.094;7.970;2023-05-07T14:49:34;20.40;10.20
2409;DHT22;8463;48.094;7.970;2023-05-07T14:52:00;20.50;13.80
2409;DHT22;8463;48.094;7.970;2023-05-07T14:54:26;20.70;5.10
2409;DHT22;8463;48.094;7.970;2023-05-07T14:56:55;21.00;8.90
2409;DHT22;8463;48.094;7.970;2023-05-07T14:59:21;21.20;2.60
2409;DHT22;8463;48.094;7.970;2023-05-07T15:01:50;21.20;2.60
2409;DHT22;8463;48.094;7.970;2023-05-07T15:04:18;21.10;1.00
2409;DHT22;8463;48.094;7.970;2023-05-07T15:06:44;20.80;1.00
2409;DHT22;8463;48.094;7.970;2023-05-07T15:09:12;20.50;1.00
2409;DHT22;8463;48.094;7.970;2023-05-07T15:11:38;20.40;1.00
2409;DHT22;8463;48.094;7.970;2023-05-07T15:14:06;20.40;1.00
2409;DHT22;8463;48.094;7.970;2023-05-07T15:16:31;20.30;1.00
2409;DHT22;8463;48.094;7.970;2023-05-07T15:18:58;20.30;1.00
2409;DHT22;8463;48.094;7.970;2023-05-07T15:21:23;20.30;1.00
2409;DHT22;8463;48.094;7.970;2023-05-07T15:23:52;20.80;1.00
2409;DHT22;8463;48.094;7.970;2023-05-07T15:26:17;21.00;1.00
2409;DHT22;8463;48.094;7.970;2023-05-07T15:28:43;21.20;1.00
2409;DHT22;8463;48.094;7.970;2023-05-07T15:31:10;21.20;1.00
2409;DHT22;8463;48.094;7.970;2023-05-07T15:33:35;21.00;1.00
2409;DHT22;8463;48.094;7.970;2023-05-07T15:36:04;21.00;1.00
2409;DHT22;8463;48.094;7.970;2023-05-07T15:38:36;21.00;1.00
2409;DHT22;8463;48.094;7.970;2023-05-07T15:41:02;20.90;1.00
2409;DHT22;8463;48.094;7.970;2023-05-07T15:43:28;20.70;1.00
2409;DHT22;8463;48.094;7.970;2023-05-07T15:45:53;20.70;1.00
2409;DHT22;8463;48.094;7.970;2023-05-07T15:48:19;20.40;1.00
2409;DHT22;8463;48.094;7.970;2023-05-07T15:50:47;20.40;1.00
2409;DHT22;8463;48.094;7.970;2023-05-07T15:53:18;20.50;1.00
2409;DHT22;8463;48.094;7.970;2023-05-07T15:55:44;20.40;1.00
2409;DHT22;8463;48.094;7.970;2023-05-07T15:58:10;20.40;1.00
2409;DHT22;8463;48.094;7.970;2023-05-07T16:00:37;20.40;1.00
2409;DHT22;8463;48.094;7.970;2023-05-07T16:03:05;20.50;1.00
2409;DHT22;8463;48.094;7.970;2023-05-07T16:05:34;20.30;1.00
2409;DHT22;8463;48.094;7.970;2023-05-07T16:07:59;20.30;1.00
2409;DHT22;8463;48.094;7.970;2023-05-07T16:12:51;20.40;1.00
2409;DHT22;8463;48.094;7.970;2023-05-07T16:17:49;20.20;1.00
2409;DHT22;8463;48.094;7.970;2023-05-07T16:22:45;20.20;1.00
2409;DHT22;8463;48.094;7.970;2023-05-07T16:27:38;20.20;1.00
2409;DHT22;8463;48.094;7.970;2023-05-07T16:30:05;20.30;1.00
2409;DHT22;8463;48.094;7.970;2023-05-07T16:32:39;20.40;1.00
2409;DHT22;8463;48.094;7.970;2023-05-07T16:35:09;20.40;1.00
2409;DHT22;8463;48.094;7.970;2023-05-07T16:37:35;20.60;1.00
2409;DHT22;8463;48.094;7.970;2023-05-07T16:40:01;20.50;1.00
2409;DHT22;8463;48.094;7.970;2023-05-07T16:42:29;20.60;1.00
2409;DHT22;8463;48.094;7.970;2023-05-07T16:44:54;20.70;1.00
2409;DHT22;8463;48.094;7.970;2023-05-07T16:47:20;20.70;1.00
2409;DHT22;8463;48.094;7.970;2023-05-07T16:49:51;20.70;1.00
2409;DHT22;8463;48.094;7.970;2023-05-07T16:52:17;20.80;1.00
2409;DHT22;8463;48.094;7.970;2023-05-07T16:54:43;20.80;1.00
2409;DHT22;8463;48.094;7.970;2023-05-07T16:57:15;20.80;1.00
2409;DHT22;8463;48.094;7.970;2023-05-07T16:59:40;20.70;1.00